首页
METAR-TAF:

METAR-TAF

机场 :

深圳宝安国际机场

深圳, 中华人民共和国

纬度: 22-33N, 经度: 114-06E, 海拔: 18米

当前天气观测

该预报发布于48分钟前的03:00 UTC
风速6节,风向西
温度 29°C
湿度 84%
气压 1003 hPa
能见度10公里或以上
散云层高于3000英尺

METAR: ZGSZ 280300Z 27003MPS 9999 SCT030 29/26 Q1003 NOSIG

时间: 11:48 (03:48 UTC)

预报

该预报发布于6小时和45分钟前的21:03 UTC
预报有效从28日的 00点(UTC)到 28日的 24点(UTC)
风速8节,风向北转东北
能見度: 6000
多云层高于4000英尺
短暂存在
从 28日的 00点(UTC)到 28日的 06点(UTC)
散云层高于1500英尺
少量云层高于2000英尺, 积雨云.
多云层高于3300英尺
阵雨
成为
从 28日的 03点(UTC)到 28日的 04点(UTC)
风速8节,风向南转西南
短暂存在
从 28日的 06点(UTC)到 28日的 09点(UTC)
散云层高于1500英尺
少量云层高于2000英尺, 积雨云.
多云层高于3300英尺
阵雨,

TAF: ZGSZ 272103Z 2800/2824 02004MPS 6000 BKN040 TX29/2806Z TN26/2822Z TEMPO 2800/2806 SHRA SCT015 FEW020CB BKN033 BECMG 2803/2804 20004MPS TEMPO 2806/2809 SHRA SCT015 FEW020CB BKN033

超过4000个机场的气象观测和天气预报(METAR&TAF报告)。

可查询的气象台以黄色和红色小点在地图上表示。

将鼠标移到小点上方,可查看气象台名称。

然后点击查看天气观测和预报。

如需切换地图:点击带黑十字的绿色按钮放大地图;点击带横线的绿色按钮缩小地图;或者点击绿色箭头查看邻近地区的地图。


METAR-TAF: